createdAt,value
2019-04-26T00:01:56.744Z,13.62
2019-04-26T00:05:59.231Z,13.64
2019-04-26T00:10:03.397Z,13.42
2019-04-26T00:14:30.931Z,13.45
2019-04-26T00:18:33.151Z,13.34
2019-04-26T00:22:35.512Z,13.29
2019-04-26T00:26:37.618Z,13.12
2019-04-26T00:30:39.841Z,13.06
2019-04-26T00:34:42.981Z,12.95
2019-04-26T00:38:45.441Z,12.84
2019-04-26T00:42:48.009Z,12.68
2019-04-26T00:46:51.096Z,12.51
2019-04-26T00:50:54.485Z,12.47
2019-04-26T00:54:58.509Z,12.47
2019-04-26T00:59:01.893Z,12.34
2019-04-26T01:03:04.154Z,12.29
2019-04-26T01:07:06.438Z,12.26
2019-04-26T01:11:08.936Z,12.25
2019-04-26T01:15:11.524Z,12.26
2019-04-26T01:19:17.095Z,12.26
2019-04-26T01:23:20.999Z,12.21
2019-04-26T01:27:26.308Z,12.32
2019-04-26T01:31:31.924Z,12.40
2019-04-26T01:35:34.437Z,12.38
2019-04-26T01:39:40.541Z,12.20
2019-04-26T01:44:03.408Z,12.06
2019-04-26T01:48:29.221Z,11.96
2019-04-26T01:52:32.619Z,11.82
2019-04-26T01:56:36.678Z,11.76
2019-04-26T02:01:01.076Z,11.66
2019-04-26T02:05:07.860Z,11.63
2019-04-26T02:09:11.584Z,11.59
2019-04-26T02:13:14.093Z,11.56
2019-04-26T02:17:16.372Z,11.58
2019-04-26T02:21:26.390Z,11.53
2019-04-26T02:25:30.097Z,11.54
2019-04-26T02:29:32.782Z,11.55
2019-04-26T02:33:36.783Z,11.49
2019-04-26T02:37:39.365Z,11.46
2019-04-26T02:41:42.822Z,11.43
2019-04-26T02:46:20.853Z,11.38
2019-04-26T02:50:35.369Z,11.36
2019-04-26T02:54:46.803Z,11.29
2019-04-26T02:59:20.758Z,11.22
2019-04-26T03:03:25.856Z,11.23
2019-04-26T03:07:46.809Z,11.16
2019-04-26T03:11:52.160Z,11.01
2019-04-26T03:16:18.526Z,10.91
2019-04-26T03:20:24.195Z,10.88
2019-04-26T03:24:35.072Z,10.86
2019-04-26T03:28:44.602Z,10.87
2019-04-26T03:33:16.567Z,10.95
2019-04-26T03:38:00.964Z,10.96
2019-04-26T03:42:21.052Z,11.05
2019-04-26T03:46:33.604Z,11.16
2019-04-26T03:50:44.916Z,11.19
2019-04-26T03:54:50.123Z,11.23
2019-04-26T03:59:31.617Z,11.23
2019-04-26T04:03:53.457Z,11.24
2019-04-26T04:07:58.501Z,11.29
2019-04-26T04:12:11.414Z,11.33
2019-04-26T04:17:22.437Z,11.32
2019-04-26T04:21:57.684Z,11.30
2019-04-26T04:26:02.623Z,11.26
2019-04-26T04:30:20.787Z,11.26
2019-04-26T04:34:29.617Z,11.26
2019-04-26T04:38:48.426Z,11.25
2019-04-26T04:43:26.114Z,11.23
2019-04-26T04:47:37.534Z,11.24
2019-04-26T04:51:51.543Z,11.31
2019-04-26T04:56:34.789Z,11.37
2019-04-26T05:01:03.608Z,11.43
2019-04-26T05:05:36.381Z,11.50
2019-04-26T05:09:49.766Z,11.55
2019-04-26T05:14:01.287Z,11.62
2019-04-26T05:18:29.337Z,11.68
2019-04-26T05:23:07.180Z,11.72
2019-04-26T05:28:09.445Z,11.70
2019-04-26T05:32:34.269Z,11.68
2019-04-26T05:37:00.471Z,11.64
2019-04-26T05:41:33.671Z,11.67
2019-04-26T05:46:19.205Z,11.74
2019-04-26T05:51:02.207Z,11.81
2019-04-26T05:56:07.260Z,11.83
2019-04-26T06:00:38.110Z,11.80
2019-04-26T06:05:26.880Z,11.78
2019-04-26T06:09:54.481Z,11.85
2019-04-26T06:14:38.527Z,11.89
2019-04-26T06:19:07.546Z,11.95
2019-04-26T06:23:32.160Z,11.86
2019-04-26T06:27:54.456Z,11.82
2019-04-26T06:32:11.103Z,11.93
2019-04-26T06:36:23.511Z,12.12
2019-04-26T06:40:48.963Z,12.25
2019-04-26T06:46:00.968Z,12.40
2019-04-26T06:50:49.729Z,12.45
2019-04-26T06:55:47.616Z,12.35
2019-04-26T07:00:18.387Z,12.48
2019-04-26T07:04:31.468Z,12.46
2019-04-26T07:08:57.808Z,12.55
2019-04-26T07:13:29.725Z,12.73
2019-04-26T07:18:24.844Z,12.91
2019-04-26T07:23:12.589Z,13.16
2019-04-26T07:27:25.163Z,13.29
2019-04-26T07:31:36.469Z,13.32
2019-04-26T07:36:04.087Z,13.19
2019-04-26T07:40:55.115Z,13.28
2019-04-26T07:45:30.430Z,13.02
2019-04-26T07:50:31.836Z,12.94
2019-04-26T07:55:03.242Z,12.85
2019-04-26T07:59:43.941Z,12.75
2019-04-26T08:03:57.451Z,12.76
2019-04-26T08:08:01.649Z,12.87
2019-04-26T08:12:08.224Z,12.99
2019-04-26T08:16:34.677Z,12.98
2019-04-26T08:20:48.503Z,13.05
2019-04-26T08:24:53.269Z,13.16
2019-04-26T08:29:00.603Z,13.34
2019-04-26T08:33:07.430Z,13.18
2019-04-26T08:37:24.258Z,13.20
2019-04-26T08:41:27.024Z,13.20
2019-04-26T08:46:01.981Z,13.34
2019-04-26T08:50:15.181Z,13.52
2019-04-26T08:54:27.641Z,13.66
2019-04-26T08:58:32.748Z,13.86
2019-04-26T09:03:11.318Z,13.85
2019-04-26T09:07:10.747Z,14.01
2019-04-26T09:11:24.085Z,13.96
2019-04-26T09:15:24.966Z,13.99
2019-04-26T09:19:30.563Z,14.08
2019-04-26T09:23:51.836Z,14.08
2019-04-26T09:27:59.657Z,14.40
2019-04-26T09:32:09.416Z,14.71
2019-04-26T09:36:11.801Z,14.93
2019-04-26T09:40:21.057Z,15.22
2019-04-26T09:44:28.216Z,15.34
2019-04-26T09:49:08.556Z,15.51
2019-04-26T09:53:11.013Z,15.76
2019-04-26T09:57:13.151Z,15.99
2019-04-26T10:01:15.185Z,15.99
2019-04-26T10:05:17.771Z,16.49
2019-04-26T10:09:22.705Z,16.79
2019-04-26T10:13:49.747Z,17.20
2019-04-26T10:17:52.507Z,17.29
2019-04-26T10:21:54.619Z,17.08
2019-04-26T10:25:56.935Z,16.97
2019-04-26T10:30:07.650Z,16.93
2019-04-26T10:34:07.797Z,17.13
2019-04-26T10:38:07.938Z,17.35
2019-04-26T10:42:10.157Z,17.35
2019-04-26T10:46:12.196Z,17.19
2019-04-26T10:50:14.718Z,16.99
2019-04-26T10:54:19.458Z,16.93
2019-04-26T10:58:46.689Z,17.04
2019-04-26T11:02:49.022Z,17.06
2019-04-26T11:06:51.068Z,17.05
2019-04-26T11:10:53.073Z,16.87
2019-04-26T11:14:56.989Z,16.68
2019-04-26T11:19:01.220Z,16.53
2019-04-26T11:23:04.385Z,16.87
2019-04-26T11:27:09.671Z,17.13
2019-04-26T11:31:10.371Z,17.47
2019-04-26T11:35:12.599Z,17.53
2019-04-26T11:39:16.875Z,17.47
2019-04-26T11:43:19.663Z,17.45
2019-04-26T11:47:22.457Z,17.47
2019-04-26T11:51:27.538Z,17.39
2019-04-26T11:55:29.797Z,17.15
2019-04-26T11:59:33.763Z,17.12
2019-04-26T12:03:35.998Z,17.05
2019-04-26T12:07:49.539Z,16.98
2019-04-26T12:12:03.961Z,17.16
2019-04-26T12:15:55.612Z,17.37
2019-04-26T12:19:58.122Z,17.64
2019-04-26T12:24:00.259Z,18.00
2019-04-26T12:28:06.059Z,18.58
2019-04-26T12:32:06.654Z,18.62
2019-04-26T12:36:09.467Z,18.61
2019-04-26T12:40:13.355Z,18.82
2019-04-26T12:44:15.935Z,19.15
2019-04-26T12:48:21.541Z,19.15
2019-04-26T12:52:23.765Z,19.36
2019-04-26T12:56:26.582Z,19.21
2019-04-26T13:00:32.854Z,18.75
2019-04-26T13:04:36.324Z,18.41
2019-04-26T13:08:37.632Z,17.98
2019-04-26T13:13:08.230Z,17.57
2019-04-26T13:17:13.899Z,17.51
2019-04-26T13:21:16.036Z,17.51
2019-04-26T13:25:26.264Z,17.68
2019-04-26T17:18:23.881Z,13.97
2019-04-26T17:22:44.225Z,13.71
2019-04-26T17:26:44.906Z,13.54
2019-04-26T17:30:47.072Z,13.37
2019-04-26T17:34:49.518Z,13.18
2019-04-26T17:38:51.695Z,13.07
2019-04-26T17:42:53.921Z,12.92
2019-04-26T17:46:59.499Z,12.76
2019-04-26T17:51:00.522Z,12.54
2019-04-26T17:55:02.603Z,12.30
2019-04-26T17:59:09.408Z,12.17
2019-04-26T18:03:13.128Z,12.04
2019-04-26T18:07:34.612Z,11.92
2019-04-26T18:11:19.569Z,11.80
2019-04-26T18:15:20.229Z,11.64
2019-04-26T18:19:42.330Z,11.59
2019-04-26T18:23:44.799Z,11.44
2019-04-26T18:27:46.825Z,11.37
2019-04-26T18:31:49.168Z,11.27
2019-04-26T18:35:55.938Z,11.16
2019-04-26T18:39:57.438Z,11.17
2019-04-26T18:43:59.744Z,11.08
2019-04-26T18:48:04.792Z,11.12
2019-04-26T18:52:08.882Z,11.07
2019-04-26T18:56:12.641Z,11.00
2019-04-26T19:00:26.508Z,10.87
2019-04-26T19:04:27.083Z,10.72
2019-04-26T19:08:29.205Z,10.51
2019-04-26T19:12:32.530Z,10.46
2019-04-26T19:16:59.270Z,10.44
2019-04-26T19:21:26.889Z,10.42
2019-04-26T19:25:35.654Z,10.45
2019-04-26T19:29:36.241Z,10.41
2019-04-26T19:33:38.502Z,10.45
2019-04-26T19:37:40.727Z,10.57
2019-04-26T19:41:43.176Z,10.58
2019-04-26T19:46:10.370Z,10.60
2019-04-26T19:50:50.535Z,10.60
2019-04-26T19:55:24.367Z,10.65
2019-04-26T19:59:27.533Z,10.65
2019-04-26T20:03:32.052Z,10.66
2019-04-26T20:07:34.433Z,10.72
2019-04-26T20:11:36.655Z,10.78
2019-04-26T20:15:38.783Z,10.80
2019-04-26T20:19:42.648Z,10.83
2019-04-26T20:23:47.323Z,10.77
2019-04-26T20:27:49.248Z,10.77
2019-04-26T20:32:09.068Z,10.75
2019-04-26T20:36:11.416Z,10.66
2019-04-26T20:40:20.210Z,10.59
2019-04-26T20:44:23.778Z,10.58
2019-04-26T20:48:25.548Z,10.65
2019-04-26T20:52:25.944Z,10.72
2019-04-26T20:56:28.213Z,10.76
2019-04-26T21:00:31.666Z,10.84
2019-04-26T21:04:38.194Z,10.87
2019-04-26T21:08:38.852Z,10.96
2019-04-26T21:12:41.801Z,11.00
2019-04-26T21:16:49.396Z,11.04
2019-04-26T21:20:47.845Z,10.98
2019-04-26T21:24:55.357Z,10.89
2019-04-26T21:29:28.008Z,10.75
2019-04-26T21:33:39.028Z,10.66
2019-04-26T21:37:45.469Z,10.65
2019-04-26T21:41:48.525Z,10.79
2019-04-26T21:45:50.791Z,10.66
2019-04-26T21:49:58.914Z,10.64
2019-04-26T21:53:57.122Z,10.65
2019-04-26T21:57:59.435Z,10.46
2019-04-26T22:02:03.384Z,10.31
2019-04-26T22:06:05.957Z,10.19
2019-04-26T22:10:14.981Z,10.11
2019-04-26T22:14:23.521Z,10.18
2019-04-26T22:18:35.077Z,10.10
2019-04-26T22:22:56.234Z,9.98
2019-04-26T22:26:58.575Z,9.83
2019-04-26T22:31:06.822Z,9.66
2019-04-26T22:35:04.909Z,9.56
2019-04-26T22:39:11.095Z,9.45
2019-04-26T22:43:30.679Z,9.32
2019-04-26T22:47:44.023Z,9.20
2019-04-26T22:51:46.053Z,9.18
2019-04-26T22:55:48.177Z,9.14
2019-04-26T22:59:50.745Z,9.14
2019-04-26T23:03:53.295Z,9.14
2019-04-26T23:07:59.269Z,9.15
2019-04-26T23:12:06.739Z,9.08
2019-04-26T23:16:40.411Z,8.95
2019-04-26T23:20:50.091Z,8.91
2019-04-26T23:24:54.530Z,8.78
2019-04-26T23:28:56.165Z,8.72
2019-04-26T23:32:58.499Z,8.70
2019-04-26T23:37:00.759Z,8.59
2019-04-26T23:41:06.964Z,8.50
2019-04-26T23:45:10.823Z,8.44
2019-04-26T23:49:11.868Z,8.43
2019-04-26T23:53:14.136Z,8.31
2019-04-26T23:57:16.230Z,8.17
